Time;durP1;ratioP1;P1;durP2;ratioP2;P2;SDS_P1;SDS_P2;PMS_P1;PMS_P2;Temp;Humidity;BMP_temperature;BMP_pressure;BME280_temperature;BME280_humidity;BME280_pressure;Samples;Min_cycle;Max_cycle;Signal;HPM_P1;HPM_P2
2022/12/22 03:28:02;;;;;;;1999.90;999.90;;;9.70;99.90;;;;;;5071494;28;20834;-67
2022/12/22 03:30:29;;;;;;;1999.90;999.90;;;9.70;99.90;;;;;;5068602;28;20479;-67
2022/12/22 03:32:57;;;;;;;1999.90;999.90;;;9.70;99.90;;;;;;5072477;28;20457;-65
2022/12/22 03:35:24;;;;;;;1999.90;999.90;;;9.60;99.90;;;;;;5072816;28;20485;-66
2022/12/22 03:37:51;;;;;;;1999.90;999.90;;;9.60;99.90;;;;;;5072366;28;20457;-66
2022/12/22 03:40:18;;;;;;;1999.90;999.90;;;9.60;99.90;;;;;;5073218;28;20452;-67
2022/12/22 03:48:14;;;;;;;1999.90;999.90;;;9.50;99.90;;;;;;5071579;28;20548;-66
2022/12/22 03:50:41;;;;;;;1999.90;999.90;;;9.50;99.90;;;;;;5072079;28;20542;-67
2022/12/22 03:53:07;;;;;;;1999.90;999.90;;;9.60;99.90;;;;;;5071275;28;20477;-67
2022/12/22 03:55:34;;;;;;;1999.90;999.90;;;9.50;99.90;;;;;;5072271;28;21053;-67
2022/12/22 03:58:00;;;;;;;1999.90;999.90;;;9.40;99.90;;;;;;5067649;28;20462;-67
2022/12/22 04:00:27;;;;;;;1999.90;999.90;;;9.50;99.90;;;;;;5074428;28;20461;-67
2022/12/22 04:02:53;;;;;;;1999.90;999.90;;;9.40;99.90;;;;;;5072807;28;20512;-67
2022/12/22 04:05:21;;;;;;;1999.90;999.90;;;9.40;99.90;;;;;;5068876;28;20456;-67
2022/12/22 04:07:48;;;;;;;1999.90;999.90;;;9.40;99.90;;;;;;5071650;28;20517;-66
2022/12/22 04:12:59;;;;;;;1999.90;999.90;;;9.30;99.90;;;;;;5072127;28;20976;-65
2022/12/22 04:15:28;;;;;;;1999.90;999.90;;;9.30;99.90;;;;;;5069506;28;20461;-64
2022/12/22 04:17:55;;;;;;;1999.90;999.90;;;9.30;99.90;;;;;;5073715;28;20862;-66
2022/12/22 04:20:25;;;;;;;1999.90;999.90;;;9.40;99.90;;;;;;5071011;28;20497;-66
2022/12/22 04:22:52;;;;;;;1999.90;999.90;;;9.40;99.90;;;;;;5072054;28;20492;-68
2022/12/22 04:25:19;;;;;;;1999.90;999.90;;;9.50;99.90;;;;;;5072730;28;20498;-68
2022/12/22 04:27:46;;;;;;;1999.90;999.90;;;9.50;99.90;;;;;;5071530;28;20981;-68
2022/12/22 04:30:13;;;;;;;1999.90;999.90;;;9.40;99.90;;;;;;5070086;28;20974;-68
2022/12/22 04:32:40;;;;;;;1999.90;999.90;;;9.30;99.90;;;;;;5071767;28;20514;-67
2022/12/22 04:35:08;;;;;;;1999.90;999.90;;;9.40;99.90;;;;;;5071162;28;20465;-68
2022/12/22 04:37:36;;;;;;;1999.90;999.90;;;9.50;99.90;;;;;;5069887;28;20509;-68
2022/12/22 04:40:03;;;;;;;1999.90;999.90;;;9.50;99.90;;;;;;5069748;28;20539;-68
2022/12/22 04:42:29;;;;;;;1999.90;999.90;;;9.40;99.90;;;;;;5071821;28;20928;-68
2022/12/22 04:44:56;;;;;;;1999.90;999.90;;;9.30;99.90;;;;;;5071885;28;20465;-68
2022/12/22 04:47:23;;;;;;;1999.90;999.90;;;9.30;99.90;;;;;;5071363;28;20475;-68
2022/12/22 04:49:49;;;;;;;1999.90;999.90;;;9.40;99.90;;;;;;5071191;28;20485;-68
2022/12/22 04:52:16;;;;;;;1999.90;999.90;;;9.50;99.90;;;;;;5072460;28;20454;-68
2022/12/22 04:54:44;;;;;;;1999.90;999.90;;;9.50;99.90;;;;;;5071038;28;20527;-68
2022/12/22 04:57:10;;;;;;;1999.90;999.90;;;9.40;99.90;;;;;;5069184;28;20994;-68
2022/12/22 04:59:37;;;;;;;1999.90;999.90;;;9.40;99.90;;;;;;5066314;28;20523;-68
2022/12/22 05:02:03;;;;;;;1999.90;999.90;;;9.50;99.90;;;;;;5066392;28;20535;-67
2022/12/22 05:04:31;;;;;;;1999.90;999.90;;;9.50;99.90;;;;;;5072991;28;21023;-68
2022/12/22 05:06:57;;;;;;;1999.90;999.90;;;9.50;99.90;;;;;;5115846;23;20508;-64
2022/12/22 05:09:24;;;;;;;1999.90;999.90;;;9.40;99.90;;;;;;5046732;28;20470;-64
2022/12/22 05:11:52;;;;;;;1999.90;999.90;;;9.40;99.90;;;;;;5049283;28;20512;-65
2022/12/22 05:14:18;;;;;;;1999.90;999.90;;;9.40;99.90;;;;;;5049233;28;21052;-65
2022/12/22 05:16:45;;;;;;;1999.90;999.90;;;9.40;99.90;;;;;;5036182;28;20538;-68
2022/12/22 05:19:12;;;;;;;1999.90;999.90;;;9.10;99.90;;;;;;5029624;28;20466;-67
2022/12/22 05:21:38;;;;;;;1999.90;999.90;;;9.20;99.90;;;;;;5031328;28;20463;-67
2022/12/22 05:24:05;;;;;;;1999.90;999.90;;;9.20;99.90;;;;;;5030305;28;20868;-64
2022/12/22 05:26:32;;;;;;;1999.90;999.90;;;9.20;99.90;;;;;;5034173;28;20545;-64
2022/12/22 05:29:00;;;;;;;1999.90;999.90;;;9.00;99.90;;;;;;5029909;28;20572;-64
2022/12/22 05:31:27;;;;;;;1999.90;999.90;;;9.20;99.90;;;;;;5031216;28;20463;-64
2022/12/22 05:33:53;;;;;;;1999.90;999.90;;;9.20;99.90;;;;;;5031625;28;20529;-67
2022/12/22 05:36:20;;;;;;;1999.90;999.90;;;9.30;99.90;;;;;;5030580;28;21065;-65
2022/12/22 05:38:46;;;;;;;1999.90;999.90;;;9.20;99.90;;;;;;5029989;28;20463;-65
2022/12/22 05:41:13;;;;;;;1999.90;999.90;;;9.20;99.90;;;;;;5033365;28;20551;-64
2022/12/22 05:43:40;;;;;;;1999.90;999.90;;;9.20;99.90;;;;;;5031635;28;20544;-68
2022/12/22 05:46:11;;;;;;;1999.90;999.90;;;9.30;99.90;;;;;;5030906;28;20479;-64
2022/12/22 05:48:38;;;;;;;1999.90;999.90;;;9.20;99.90;;;;;;5031263;28;20458;-67
2022/12/22 05:51:06;;;;;;;1999.90;999.90;;;9.40;99.90;;;;;;5030171;28;20537;-67
2022/12/22 05:53:32;;;;;;;1999.90;999.90;;;9.20;99.90;;;;;;5031321;28;20497;-66
2022/12/22 05:55:59;;;;;;;1999.90;999.90;;;9.10;99.90;;;;;;5032839;28;20542;-68
2022/12/22 05:58:26;;;;;;;1999.90;999.90;;;9.10;99.90;;;;;;5030875;28;20459;-67
2022/12/22 06:00:56;;;;;;;1999.90;999.90;;;8.80;99.90;;;;;;5030040;28;20513;-66
2022/12/22 06:03:24;;;;;;;1999.90;999.90;;;8.80;99.90;;;;;;5029427;28;20490;-67
2022/12/22 06:05:51;;;;;;;1999.90;999.90;;;8.80;99.90;;;;;;5032417;28;20514;-64
2022/12/22 06:08:18;;;;;;;1999.90;999.90;;;8.80;99.90;;;;;;5034192;28;20540;-64
2022/12/22 06:10:44;;;;;;;1999.90;999.90;;;8.80;99.90;;;;;;5033967;28;20544;-63
2022/12/22 06:13:11;;;;;;;1999.90;999.90;;;8.70;99.90;;;;;;5031854;28;20510;-64
2022/12/22 06:15:37;;;;;;;1999.90;999.90;;;8.80;99.90;;;;;;5033389;28;20471;-61
2022/12/22 06:18:04;;;;;;;1999.90;999.90;;;8.90;99.90;;;;;;5033712;28;20498;-62
2022/12/22 06:20:32;;;;;;;1999.90;999.90;;;8.90;99.90;;;;;;5033590;28;20462;-65
2022/12/22 06:22:59;;;;;;;1999.90;999.90;;;8.80;99.90;;;;;;5034462;28;20835;-65
2022/12/22 06:25:25;;;;;;;1999.90;999.90;;;8.70;99.90;;;;;;5037520;28;20459;-66
2022/12/22 06:27:52;;;;;;;1999.90;999.90;;;8.70;99.90;;;;;;5032860;28;20506;-63
2022/12/22 06:30:19;;;;;;;1999.90;999.90;;;8.60;99.90;;;;;;5033797;28;21137;-64
2022/12/22 06:32:45;;;;;;;1999.90;999.90;;;8.60;99.90;;;;;;5033133;28;20459;-64
2022/12/22 06:35:12;;;;;;;1999.90;999.90;;;8.70;99.90;;;;;;5033033;28;20517;-66
2022/12/22 06:37:40;;;;;;;1999.90;999.90;;;8.80;99.90;;;;;;5034469;28;20541;-67
2022/12/22 06:40:08;;;;;;;1999.90;999.90;;;8.70;99.90;;;;;;5033527;28;21104;-68
2022/12/22 06:45:18;;;;;;;1999.90;999.90;;;8.50;99.90;;;;;;5034077;28;20436;-69
2022/12/22 06:47:45;;;;;;;1999.90;999.90;;;8.70;99.90;;;;;;5033997;28;20535;-66
2022/12/22 06:50:12;;;;;;;1999.90;999.90;;;8.50;99.90;;;;;;5033042;28;20463;-67
2022/12/22 06:52:40;;;;;;;1999.90;999.90;;;8.50;99.90;;;;;;5036897;28;20490;-64
2022/12/22 06:55:07;;;;;;;1999.90;999.90;;;8.70;99.90;;;;;;5032805;28;20546;-64
2022/12/22 06:57:33;;;;;;;1999.90;999.90;;;8.60;99.90;;;;;;5028704;28;21020;-66
2022/12/22 07:00:00;;;;;;;1999.90;999.90;;;8.60;99.90;;;;;;5032495;28;20528;-64
2022/12/22 07:02:27;;;;;;;1999.90;999.90;;;8.70;99.90;;;;;;5028521;28;20487;-65
2022/12/22 07:04:53;;;;;;;1999.90;999.90;;;8.60;99.90;;;;;;5031913;28;22286;-64
2022/12/22 07:07:20;;;;;;;1999.90;999.90;;;8.50;99.90;;;;;;5034114;28;20556;-64
2022/12/22 07:09:48;;;;;;;1999.90;999.90;;;8.50;99.90;;;;;;5032714;28;20517;-65
2022/12/22 07:12:14;;;;;;;1999.90;999.90;;;8.50;99.90;;;;;;5038242;28;20482;-65
2022/12/22 07:14:41;;;;;;;1999.90;999.90;;;8.70;99.90;;;;;;5034804;28;20467;-65
2022/12/22 07:17:07;;;;;;;1999.90;999.90;;;8.80;99.90;;;;;;5033026;28;21001;-64
2022/12/22 07:19:34;;;;;;;1999.90;999.90;;;8.90;99.90;;;;;;5032220;28;20486;-64
2022/12/22 07:22:01;;;;;;;1999.90;999.90;;;8.70;99.90;;;;;;5044023;28;20447;-64
2022/12/22 07:24:28;;;;;;;1999.90;999.90;;;8.70;99.90;;;;;;5052301;28;20556;-62
2022/12/22 07:26:56;;;;;;;1999.90;999.90;;;8.50;99.90;;;;;;5029815;28;20765;-67
2022/12/22 07:29:22;;;;;;;1999.90;999.90;;;8.90;99.90;;;;;;5030853;28;20540;-63
2022/12/22 07:31:49;;;;;;;1999.90;999.90;;;8.50;99.90;;;;;;5033422;28;20459;-62
2022/12/22 07:34:16;;;;;;;1999.90;999.90;;;8.40;99.90;;;;;;5033444;28;21094;-63
2022/12/22 07:36:42;;;;;;;1999.90;999.90;;;8.50;99.90;;;;;;5030269;28;20479;-65
2022/12/22 07:39:09;;;;;;;1999.90;999.90;;;8.30;99.90;;;;;;5034579;28;20880;-65
2022/12/22 07:44:22;;;;;;;1999.90;999.90;;;8.50;99.90;;;;;;5032475;28;20959;-67
2022/12/22 07:46:49;;;;;;;1999.90;999.90;;;8.30;99.90;;;;;;5032003;28;20509;-68
2022/12/22 07:52:00;;;;;;;1999.90;999.90;;;8.20;99.90;;;;;;5044946;28;20458;-66
2022/12/22 07:54:28;;;;;;;1999.90;999.90;;;8.60;99.90;;;;;;5047247;28;20446;-67
2022/12/22 07:56:55;;;;;;;1999.90;999.90;;;8.10;99.90;;;;;;5035525;28;20577;-67
2022/12/22 07:59:23;;;;;;;1999.90;999.90;;;8.10;99.90;;;;;;4994411;28;20567;-69
2022/12/22 08:01:50;;;;;;;1999.90;999.90;;;8.20;99.90;;;;;;4967867;28;21017;-66
2022/12/22 08:04:16;;;;;;;1999.90;999.90;;;8.40;99.90;;;;;;4977855;28;20556;-68
2022/12/22 08:06:43;;;;;;;1999.90;999.90;;;8.30;99.90;;;;;;4981540;28;20551;-67
2022/12/22 08:09:13;;;;;;;1999.90;999.90;;;8.40;99.90;;;;;;4996137;28;20992;-64
2022/12/22 08:11:40;;;;;;;1999.90;999.90;;;8.30;99.90;;;;;;4993621;28;20456;-64
2022/12/22 08:14:06;;;;;;;1999.90;999.90;;;8.30;99.90;;;;;;4993390;28;20484;-65
2022/12/22 08:16:34;;;;;;;1999.90;999.90;;;8.30;99.90;;;;;;4992986;28;20508;-67
2022/12/22 08:19:01;;;;;;;1999.90;999.90;;;8.40;99.90;;;;;;4994971;28;20464;-65
2022/12/22 08:21:27;;;;;;;1999.90;999.90;;;8.40;99.90;;;;;;4999943;28;20501;-70
2022/12/22 08:23:54;;;;;;;1999.90;999.90;;;8.50;99.90;;;;;;5002695;28;20915;-65
2022/12/22 08:26:26;;;;;;;1999.90;999.90;;;8.50;99.90;;;;;;5003073;28;20488;-65
2022/12/22 08:28:56;;;;;;;1999.90;999.90;;;8.40;99.90;;;;;;5004200;28;20933;-66
2022/12/22 08:31:26;;;;;;;1999.90;999.90;;;8.50;99.90;;;;;;5012601;28;20532;-66
2022/12/22 08:33:55;;;;;;;1999.90;999.90;;;8.60;99.90;;;;;;4997312;28;20467;-67
2022/12/22 08:36:22;;;;;;;1999.90;999.90;;;8.60;99.90;;;;;;4996825;28;20483;-66
2022/12/22 08:38:49;;;;;;;1999.90;999.90;;;8.60;99.90;;;;;;4991388;28;20472;-65
2022/12/22 08:41:48;;;;;;;1999.90;999.90;;;8.70;99.90;;;;;;4991493;28;20484;-66
2022/12/22 08:44:03;;;;;;;1999.90;999.90;;;8.80;99.90;;;;;;4990253;28;20508;-67
2022/12/22 08:46:30;;;;;;;1999.90;999.90;;;8.80;99.90;;;;;;4990650;28;20531;-64
2022/12/22 08:48:58;;;;;;;1999.90;999.90;;;8.70;99.90;;;;;;5002739;28;20445;-66
2022/12/22 08:51:24;;;;;;;1999.90;999.90;;;8.80;99.90;;;;;;5011654;28;20453;-63
2022/12/22 08:53:51;;;;;;;1999.90;999.90;;;8.90;99.90;;;;;;5006268;28;21111;-66
2022/12/22 08:56:17;;;;;;;1999.90;999.90;;;8.90;99.90;;;;;;4996010;28;20480;-65
2022/12/22 08:58:44;;;;;;;1999.90;999.90;;;8.80;99.90;;;;;;5002151;28;20813;-67
2022/12/22 09:01:15;;;;;;;1999.90;999.90;;;8.80;99.90;;;;;;5004198;28;20895;-65
2022/12/22 09:03:42;;;;;;;1999.90;999.90;;;8.90;99.90;;;;;;5012302;28;20993;-69
2022/12/22 09:06:10;;;;;;;1999.90;999.90;;;9.00;99.90;;;;;;5003013;28;20558;-65
2022/12/22 09:08:37;;;;;;;1999.90;999.90;;;9.00;99.90;;;;;;5003913;28;20467;-67
2022/12/22 09:11:03;;;;;;;1999.90;999.90;;;9.00;99.90;;;;;;5011847;28;20448;-66
2022/12/22 09:13:30;;;;;;;1999.90;999.90;;;8.90;99.90;;;;;;5011994;28;20502;-66
2022/12/22 09:15:57;;;;;;;1999.90;999.90;;;9.00;99.90;;;;;;5001429;28;21048;-65
2022/12/22 09:18:23;;;;;;;1999.90;999.90;;;9.00;99.90;;;;;;4998474;28;20502;-67
2022/12/22 09:20:54;;;;;;;1999.90;999.90;;;9.10;99.90;;;;;;4992136;28;20466;-65
2022/12/22 09:23:22;;;;;;;1999.90;999.90;;;9.20;99.90;;;;;;4996877;28;20524;-66
2022/12/22 09:25:49;;;;;;;1999.90;999.90;;;9.30;99.90;;;;;;4992900;28;20455;-65
2022/12/22 09:28:15;;;;;;;1999.90;999.90;;;9.40;99.90;;;;;;4996534;28;20518;-66
2022/12/22 09:30:42;;;;;;;1999.90;999.90;;;9.50;99.90;;;;;;4993817;28;20465;-68
2022/12/22 09:33:09;;;;;;;1999.90;999.90;;;9.50;99.90;;;;;;4993195;28;20484;-67
2022/12/22 09:35:35;;;;;;;1999.90;999.90;;;9.70;99.90;;;;;;4988852;28;20484;-67
2022/12/22 09:38:02;;;;;;;1999.90;999.90;;;9.50;99.90;;;;;;4991035;28;21161;-66
2022/12/22 09:40:32;;;;;;;1999.90;999.90;;;9.50;99.90;;;;;;4991174;28;20493;-66
2022/12/22 09:42:59;;;;;;;1999.90;999.90;;;9.50;99.90;;;;;;4989680;28;20459;-62
2022/12/22 09:45:26;;;;;;;1999.90;999.90;;;9.70;99.90;;;;;;4993729;28;20481;-69
2022/12/22 09:47:54;;;;;;;1999.90;999.90;;;10.00;99.90;;;;;;4994075;28;20935;-69
2022/12/22 09:50:24;;;;;;;1999.90;999.90;;;10.00;99.90;;;;;;4996171;28;20475;-66
2022/12/22 09:52:55;;;;;;;1999.90;999.90;;;10.10;99.90;;;;;;4996669;28;20460;-67
2022/12/22 09:55:37;;;;;;;1999.90;999.90;;;10.10;99.90;;;;;;4998080;28;20498;-66
2022/12/22 09:58:03;;;;;;;1999.90;999.90;;;10.00;99.90;;;;;;4994987;28;20546;-66
2022/12/22 10:00:30;;;;;;;1999.90;999.90;;;10.00;99.90;;;;;;4994887;28;20464;-67
2022/12/22 10:03:03;;;;;;;1999.90;999.90;;;10.10;99.90;;;;;;4995122;28;20465;-67
2022/12/22 10:05:39;;;;;;;1999.90;999.90;;;10.20;99.90;;;;;;4994456;28;20547;-65
2022/12/22 10:08:11;;;;;;;1999.90;999.90;;;10.20;99.90;;;;;;4993945;28;20543;-67
2022/12/22 10:10:39;;;;;;;1999.90;999.90;;;10.20;99.90;;;;;;4989591;28;20493;-67
2022/12/22 10:13:06;;;;;;;1999.90;999.90;;;10.30;99.90;;;;;;4992810;28;20550;-63
2022/12/22 10:15:38;;;;;;;1999.90;999.90;;;10.30;99.90;;;;;;4994949;28;20465;-66
2022/12/22 10:18:13;;;;;;;1999.90;999.90;;;10.40;99.90;;;;;;4994675;28;20527;-67
2022/12/22 10:20:40;;;;;;;1999.90;999.90;;;10.40;99.90;;;;;;4995946;28;20492;-66
2022/12/22 10:23:16;;;;;;;1999.90;999.90;;;10.20;99.90;;;;;;4994956;28;20496;-66
2022/12/22 10:26:01;;;;;;;1999.90;999.90;;;10.20;99.90;;;;;;4997124;28;20521;-67
2022/12/22 10:28:30;;;;;;;1999.90;999.90;;;10.20;99.90;;;;;;4991897;28;20507;-68
2022/12/22 10:31:12;;;;;;;1999.90;999.90;;;10.30;99.90;;;;;;4994854;28;21146;-64
2022/12/22 10:33:40;;;;;;;1999.90;999.90;;;10.50;99.90;;;;;;4993257;28;20457;-67
2022/12/22 10:36:08;;;;;;;1999.90;999.90;;;10.70;99.90;;;;;;4993377;28;20534;-69
2022/12/22 10:38:36;;;;;;;1999.90;999.90;;;10.90;99.90;;;;;;4994467;28;20457;-66
2022/12/22 10:41:13;;;;;;;1999.90;999.90;;;11.00;99.90;;;;;;4994360;28;20487;-69
2022/12/22 10:43:47;;;;;;;1999.90;999.90;;;11.00;99.90;;;;;;4991836;28;20515;-67
2022/12/22 10:46:14;;;;;;;1999.90;999.90;;;10.80;99.90;;;;;;4995249;28;21008;-68
2022/12/22 10:48:40;;;;;;;1999.90;999.90;;;10.70;99.90;;;;;;5006216;28;20440;-65
2022/12/22 10:51:09;;;;;;;1999.90;999.90;;;10.50;99.90;;;;;;4999437;28;20974;-66
2022/12/22 10:53:42;;;;;;;1999.90;999.90;;;10.50;99.90;;;;;;5002893;28;20958;-69
2022/12/22 10:56:20;;;;;;;1999.90;999.90;;;10.60;99.90;;;;;;4996306;28;20530;-66
2022/12/22 10:58:49;;;;;;;1999.90;999.90;;;10.70;99.90;;;;;;4995943;28;20469;-68
2022/12/22 11:01:25;;;;;;;1999.90;999.90;;;10.80;99.90;;;;;;4996159;28;20497;-66
2022/12/22 11:03:51;;;;;;;1999.90;999.90;;;10.90;99.90;;;;;;4997785;28;22527;-69
2022/12/22 11:06:19;;;;;;;1999.90;999.90;;;11.00;99.90;;;;;;5001945;28;20545;-68
2022/12/22 11:08:45;;;;;;;1999.90;999.90;;;11.10;99.90;;;;;;4998725;28;20492;-69
2022/12/22 11:11:22;;;;;;;1999.90;999.90;;;11.20;99.90;;;;;;5005461;23;21251;-64
2022/12/22 11:13:58;;;;;;;1999.90;999.90;;;11.40;99.90;;;;;;5009035;28;20541;-65
2022/12/22 11:16:32;;;;;;;1999.90;999.90;;;11.50;99.90;;;;;;5011928;28;20456;-66
2022/12/22 11:19:18;;;;;;;1999.90;999.90;;;11.30;99.90;;;;;;5028184;28;20431;-64
2022/12/22 11:21:53;;;;;;;1999.90;999.90;;;11.10;99.90;;;;;;5000367;28;20476;-66
2022/12/22 11:24:32;;;;;;;1999.90;999.90;;;11.10;99.90;;;;;;4992869;28;20516;-62
2022/12/22 11:27:15;;;;;;;1999.90;999.90;;;11.00;99.90;;;;;;4996731;28;20449;-62
2022/12/22 11:30:01;;;;;;;1999.90;999.90;;;11.00;99.90;;;;;;4990763;28;20469;-66
2022/12/22 11:32:45;;;;;;;1999.90;999.90;;;11.10;99.90;;;;;;4992081;28;20867;-64
2022/12/22 11:35:19;;;;;;;1999.90;999.90;;;11.00;99.90;;;;;;4991415;28;20871;-63
2022/12/22 11:37:50;;;;;;;1999.90;999.90;;;10.90;99.90;;;;;;4987923;28;20475;-64
2022/12/22 11:40:27;;;;;;;1999.90;999.90;;;10.80;99.90;;;;;;4991134;28;20456;-65
2022/12/22 11:43:11;;;;;;;1999.90;999.90;;;10.70;99.90;;;;;;4984488;28;20551;-65
2022/12/22 11:45:50;;;;;;;1999.90;999.90;;;10.70;99.90;;;;;;4989627;28;20945;-66
2022/12/22 11:48:54;;;;;;;1999.90;999.90;;;10.70;99.90;;;;;;4993294;28;20444;-64
2022/12/22 11:51:34;;;;;;;1999.90;999.90;;;10.70;99.90;;;;;;4987563;28;20517;-64
2022/12/22 11:54:34;;;;;;;1999.90;999.90;;;10.70;99.90;;;;;;4992153;28;21794;-66
2022/12/22 11:57:10;;;;;;;1999.90;999.90;;;10.80;99.90;;;;;;5005594;28;20469;-65
2022/12/22 11:59:47;;;;;;;1999.90;999.90;;;10.80;99.90;;;;;;4990024;28;20561;-65
2022/12/22 12:02:44;;;;;;;1999.90;999.90;;;10.70;99.90;;;;;;4990396;28;21087;-64
2022/12/22 12:05:30;;;;;;;1999.90;999.90;;;10.70;99.90;;;;;;4962661;28;20485;-64
2022/12/22 12:08:08;;;;;;;1999.90;999.90;;;10.70;99.90;;;;;;4984304;28;20492;-65
2022/12/22 12:10:41;;;;;;;1999.90;999.90;;;10.60;99.90;;;;;;4989165;28;20496;-66
2022/12/22 12:13:16;;;;;;;1999.90;999.90;;;10.60;99.90;;;;;;4989810;28;21024;-66
2022/12/22 12:15:48;;;;;;;1999.90;999.90;;;10.50;99.90;;;;;;4988454;28;20557;-66
2022/12/22 12:18:40;;;;;;;1999.90;999.90;;;10.50;99.90;;;;;;4992207;28;20472;-66
2022/12/22 12:21:24;;;;;;;1999.90;999.90;;;10.50;99.90;;;;;;4986711;28;20527;-65
2022/12/22 12:24:06;;;;;;;1999.90;999.90;;;10.60;99.90;;;;;;4988640;28;20461;-65
2022/12/22 12:26:41;;;;;;;1999.90;999.90;;;10.60;99.90;;;;;;4991513;28;21020;-66
2022/12/22 12:29:15;;;;;;;1999.90;999.90;;;10.50;99.90;;;;;;4983383;28;21281;-65
2022/12/22 12:31:48;;;;;;;1999.90;999.90;;;10.60;99.90;;;;;;4991034;28;20513;-64
2022/12/22 12:34:18;;;;;;;1999.90;999.90;;;10.60;99.90;;;;;;4991224;28;20515;-66
2022/12/22 12:36:51;;;;;;;1999.90;999.90;;;10.60;99.90;;;;;;4992066;28;20533;-66
2022/12/22 12:39:21;;;;;;;1999.90;999.90;;;10.60;99.90;;;;;;4991084;28;21088;-65
2022/12/22 12:41:57;;;;;;;1999.90;999.90;;;10.60;99.90;;;;;;4991864;28;20481;-66
2022/12/22 12:44:27;;;;;;;1999.90;999.90;;;10.70;99.90;;;;;;4988261;28;20581;-65
2022/12/22 12:47:05;;;;;;;1999.90;999.90;;;10.60;99.90;;;;;;4990889;28;20464;-65
2022/12/22 12:49:54;;;;;;;1999.90;999.90;;;10.60;99.90;;;;;;4990347;28;20488;-65
2022/12/22 12:53:06;;;;;;;1999.90;999.90;;;10.60;99.90;;;;;;4986082;28;20488;-66
2022/12/22 12:55:50;;;;;;;1999.90;999.90;;;10.70;99.90;;;;;;4911109;29;20460;-66
2022/12/22 12:58:51;;;;;;;1999.90;999.90;;;10.60;99.90;;;;;;4982436;28;20469;-65
2022/12/22 13:01:52;;;;;;;1999.90;999.90;;;10.50;99.90;;;;;;4990164;28;21017;-65
2022/12/22 13:04:52;;;;;;;1999.90;999.90;;;10.40;99.90;;;;;;4982835;28;20963;-66
2022/12/22 13:07:54;;;;;;;1999.90;999.90;;;10.40;99.90;;;;;;4991181;28;20422;-66
2022/12/22 13:10:25;;;;;;;1999.90;999.90;;;10.30;99.90;;;;;;4958398;28;20452;-66
2022/12/22 13:12:53;;;;;;;1999.90;999.90;;;10.30;99.90;;;;;;4998151;28;20562;-64
2022/12/22 13:15:31;;;;;;;1999.90;999.90;;;10.40;99.90;;;;;;5005082;28;20440;-66
2022/12/22 13:17:58;;;;;;;1999.90;999.90;;;10.40;99.90;;;;;;5010801;28;20486;-64
2022/12/22 13:20:29;;;;;;;1999.90;999.90;;;10.30;99.90;;;;;;5010761;28;20502;-65
2022/12/22 13:22:58;;;;;;;1999.90;999.90;;;10.30;99.90;;;;;;5004803;28;20468;-65
2022/12/22 13:25:36;;;;;;;1999.90;999.90;;;10.30;99.90;;;;;;5004894;28;20526;-65
2022/12/22 13:28:03;;;;;;;1999.90;999.90;;;10.20;99.90;;;;;;5009911;28;20478;-66
2022/12/22 13:30:31;;;;;;;1999.90;999.90;;;10.20;99.90;;;;;;5010961;28;20455;-64
2022/12/22 13:33:01;;;;;;;1999.90;999.90;;;10.20;99.90;;;;;;5002482;28;20475;-65
2022/12/22 13:35:34;;;;;;;1999.90;999.90;;;10.20;99.90;;;;;;5005335;28;20456;-64
2022/12/22 13:38:01;;;;;;;1999.90;999.90;;;10.20;99.90;;;;;;4998039;28;20510;-63
2022/12/22 13:40:40;;;;;;;1999.90;999.90;;;10.10;99.90;;;;;;4984158;28;20546;-65
2022/12/22 13:43:12;;;;;;;1999.90;999.90;;;10.10;99.90;;;;;;4991104;28;20889;-67
2022/12/22 13:45:41;;;;;;;1999.90;999.90;;;10.20;99.90;;;;;;5002115;28;20488;-66
2022/12/22 13:48:14;;;;;;;1999.90;999.90;;;10.20;99.90;;;;;;4990866;28;20539;-63
2022/12/22 13:50:44;;;;;;;1999.90;999.90;;;10.20;99.90;;;;;;4988445;28;20445;-65
2022/12/22 13:53:18;;;;;;;1999.90;999.90;;;10.20;99.90;;;;;;4998306;28;20472;-66
2022/12/22 13:55:48;;;;;;;1999.90;999.90;;;10.20;99.90;;;;;;5006257;28;20471;-65
2022/12/22 13:58:25;;;;;;;1999.90;999.90;;;10.10;99.90;;;;;;5010494;28;20964;-65
2022/12/22 14:01:02;;;;;;;1999.90;999.90;;;10.20;99.90;;;;;;5010255;28;20472;-66
2022/12/22 14:03:28;;;;;;;1999.90;999.90;;;10.20;99.90;;;;;;4999515;28;20469;-65
2022/12/22 14:05:55;;;;;;;1999.90;999.90;;;10.10;99.90;;;;;;5003979;28;20559;-66
2022/12/22 14:08:23;;;;;;;1999.90;999.90;;;10.20;99.90;;;;;;5001964;28;20448;-66
2022/12/22 14:10:52;;;;;;;1999.90;999.90;;;10.20;99.90;;;;;;4993791;28;20642;-66
2022/12/22 14:13:23;;;;;;;1999.90;999.90;;;10.10;99.90;;;;;;4986993;28;20465;-64
2022/12/22 14:16:00;;;;;;;1999.90;999.90;;;10.10;99.90;;;;;;4990875;28;20469;-65
2022/12/22 14:18:27;;;;;;;1999.90;999.90;;;10.20;99.90;;;;;;4998866;28;20478;-65
2022/12/22 14:20:55;;;;;;;1999.90;999.90;;;10.10;99.90;;;;;;4991838;28;20491;-66
2022/12/22 14:23:23;;;;;;;1999.90;999.90;;;10.10;99.90;;;;;;4993544;28;20523;-65
2022/12/22 14:25:53;;;;;;;1999.90;999.90;;;10.10;99.90;;;;;;5002433;28;20555;-66
2022/12/22 14:28:22;;;;;;;1999.90;999.90;;;10.10;99.90;;;;;;5014144;28;20823;-65
2022/12/22 14:30:52;;;;;;;1999.90;999.90;;;10.10;99.90;;;;;;5013493;28;20526;-65
2022/12/22 14:33:28;;;;;;;1999.90;999.90;;;10.10;99.90;;;;;;5007827;28;20519;-65
2022/12/22 14:36:22;;;;;;;1999.90;999.90;;;10.10;99.90;;;;;;4992732;28;20503;-65
2022/12/22 14:38:50;;;;;;;1999.90;999.90;;;10.10;99.90;;;;;;4974707;28;20560;-65
2022/12/22 14:41:41;;;;;;;1999.90;999.90;;;10.10;99.90;;;;;;5007705;28;20588;-66
2022/12/22 14:44:14;;;;;;;1999.90;999.90;;;10.00;99.90;;;;;;5014559;28;20440;-65
2022/12/22 14:46:41;;;;;;;1999.90;999.90;;;10.00;99.90;;;;;;5014535;28;20483;-65
2022/12/22 14:49:14;;;;;;;1999.90;999.90;;;9.80;99.90;;;;;;5009145;28;20852;-65
2022/12/22 14:51:41;;;;;;;1999.90;999.90;;;9.80;99.90;;;;;;5001002;28;20542;-64
2022/12/22 14:54:19;;;;;;;1999.90;999.90;;;9.70;99.90;;;;;;4986828;28;20451;-65
2022/12/22 14:56:50;;;;;;;1999.90;999.90;;;9.60;99.90;;;;;;4988010;28;20480;-65
2022/12/22 14:59:25;;;;;;;1999.90;999.90;;;9.60;99.90;;;;;;5026239;28;20463;-66
2022/12/22 15:01:59;;;;;;;1999.90;999.90;;;9.50;99.90;;;;;;5021190;28;20998;-64
2022/12/22 15:04:26;;;;;;;1999.90;999.90;;;9.50;99.90;;;;;;5025809;28;20466;-65
2022/12/22 15:07:05;;;;;;;1999.90;999.90;;;9.40;99.90;;;;;;5021405;28;20487;-65
2022/12/22 15:09:31;;;;;;;1999.90;999.90;;;9.30;99.90;;;;;;5019041;28;20479;-66
2022/12/22 15:12:06;;;;;;;1999.90;999.90;;;9.30;99.90;;;;;;5018149;28;20542;-68
2022/12/22 15:14:36;;;;;;;1999.90;999.90;;;9.30;99.90;;;;;;5022322;28;20462;-68
2022/12/22 15:17:04;;;;;;;1999.90;999.90;;;9.30;99.90;;;;;;5026347;28;20455;-67
2022/12/22 15:19:33;;;;;;;1999.90;999.90;;;9.30;99.90;;;;;;5013926;28;20973;-68
2022/12/22 15:22:00;;;;;;;1999.90;999.90;;;9.20;99.90;;;;;;5023467;28;20482;-68
2022/12/22 15:24:28;;;;;;;1999.90;999.90;;;9.50;99.90;;;;;;5020851;28;20453;-68
2022/12/22 15:26:54;;;;;;;1999.90;999.90;;;9.00;99.90;;;;;;5018592;28;20487;-68
2022/12/22 15:29:22;;;;;;;1999.90;999.90;;;9.00;99.90;;;;;;5026039;28;20463;-67
2022/12/22 15:31:49;;;;;;;1999.90;999.90;;;9.00;99.90;;;;;;5014993;28;20479;-67
2022/12/22 15:34:21;;;;;;;1999.90;999.90;;;8.90;99.90;;;;;;5027316;28;20459;-68
2022/12/22 15:36:48;;;;;;;1999.90;999.90;;;8.80;99.90;;;;;;5022346;28;20456;-64
2022/12/22 15:39:16;;;;;;;1999.90;999.90;;;8.70;99.90;;;;;;5026624;28;20463;-64
2022/12/22 15:41:43;;;;;;;1999.90;999.90;;;8.70;99.90;;;;;;5015604;28;20875;-65
2022/12/22 15:44:10;;;;;;;1999.90;999.90;;;8.70;99.90;;;;;;5027106;28;20459;-64
2022/12/22 15:46:39;;;;;;;1999.90;999.90;;;8.70;99.90;;;;;;5027653;28;20475;-65
2022/12/22 15:49:10;;;;;;;1999.90;999.90;;;8.70;99.90;;;;;;5021486;28;20455;-66
2022/12/22 15:51:37;;;;;;;1999.90;999.90;;;8.60;99.90;;;;;;5024049;28;20529;-64
2022/12/22 15:54:04;;;;;;;1999.90;999.90;;;8.50;99.90;;;;;;5026577;28;20506;-66
2022/12/22 15:56:32;;;;;;;1999.90;999.90;;;8.40;99.90;;;;;;5024985;28;20455;-65
2022/12/22 15:59:01;;;;;;;1999.90;999.90;;;8.40;99.90;;;;;;5019537;28;20470;-65
2022/12/22 16:01:27;;;;;;;1999.90;999.90;;;8.30;99.90;;;;;;5022362;28;20482;-65
2022/12/22 16:03:55;;;;;;;1999.90;999.90;;;8.20;99.90;;;;;;5019202;28;20464;-64